Time;durP1;ratioP1;P1;durP2;ratioP2;P2;SDS_P1;SDS_P2;PMS_P1;PMS_P2;Temp;Humidity;BMP_temperature;BMP_pressure;BME280_temperature;BME280_humidity;BME280_pressure;Samples;Min_cycle;Max_cycle;Signal;HPM_P1;HPM_P2
2022/04/27 00:01:15;;;;;;;16.35;9.10;;;;;;;;;;10473077;28;20079;-67
2022/04/27 00:06:19;;;;;;;17.85;9.63;;;;;;;;;;10443397;28;20049;-65
2022/04/27 00:11:21;;;;;;;18.13;9.07;;;;;;;;;;10462096;28;20045;-65
2022/04/27 00:16:24;;;;;;;15.68;9.52;;;;;;;;;;10472492;28;20352;-65
2022/04/27 00:21:28;;;;;;;16.00;8.50;;;;;;;;;;10473446;28;20041;-66
2022/04/27 00:26:30;;;;;;;18.70;9.38;;;;;;;;;;10472159;28;20286;-66
2022/04/27 00:31:33;;;;;;;17.70;9.07;;;;;;;;;;10471910;28;20271;-65
2022/04/27 00:36:36;;;;;;;16.63;9.10;;;;;;;;;;10472655;28;20036;-66
2022/04/27 00:41:39;;;;;;;18.85;9.68;;;;;;;;;;10472451;28;20235;-66
2022/04/27 00:46:41;;;;;;;17.70;9.20;;;;;;;;;;10470167;28;20065;-66
2022/04/27 00:51:45;;;;;;;13.20;8.50;;;;;;;;;;10473118;28;20041;-66
2022/04/27 00:56:50;;;;;;;15.57;9.70;;;;;;;;;;10470912;28;20174;-66
2022/04/27 01:01:52;;;;;;;20.52;9.65;;;;;;;;;;10471796;28;20320;-66
2022/04/27 01:06:56;;;;;;;13.02;8.40;;;;;;;;;;10470221;28;20095;-65
2022/04/27 01:11:59;;;;;;;13.70;8.52;;;;;;;;;;10471464;28;20386;-65
2022/04/27 01:17:01;;;;;;;12.73;8.32;;;;;;;;;;10471032;28;20087;-65
2022/04/27 01:22:06;;;;;;;20.88;9.60;;;;;;;;;;10469866;28;20049;-65
2022/04/27 01:27:08;;;;;;;15.27;9.57;;;;;;;;;;10465346;28;20079;-65
2022/04/27 01:32:11;;;;;;;14.55;9.32;;;;;;;;;;10471301;28;20048;-65
2022/04/27 01:42:35;;;;;;;17.08;9.77;;;;;;;;;;10485288;28;20053;-65
2022/04/27 01:47:37;;;;;;;21.75;10.38;;;;;;;;;;10470580;28;20044;-64
2022/04/27 01:58:02;;;;;;;15.05;8.85;;;;;;;;;;10473551;28;20064;-66
2022/04/27 02:03:04;;;;;;;17.73;9.38;;;;;;;;;;10477957;28;20048;-65
2022/04/27 02:08:08;;;;;;;14.40;9.35;;;;;;;;;;10476843;28;20063;-66
2022/04/27 02:13:11;;;;;;;15.77;9.75;;;;;;;;;;10477627;28;20041;-65
2022/04/27 02:18:13;;;;;;;16.75;10.07;;;;;;;;;;10478034;28;20052;-66
2022/04/27 02:23:20;;;;;;;19.25;11.27;;;;;;;;;;10476144;28;20073;-66
2022/04/27 02:28:22;;;;;;;17.20;10.75;;;;;;;;;;10437265;28;20069;-66
2022/04/27 02:33:24;;;;;;;20.80;10.88;;;;;;;;;;10437648;28;20041;-66
2022/04/27 02:38:28;;;;;;;18.63;10.93;;;;;;;;;;10476418;28;20051;-66
2022/04/27 02:43:31;;;;;;;18.85;9.93;;;;;;;;;;10477049;28;20044;-66
2022/04/27 02:48:33;;;;;;;14.63;9.82;;;;;;;;;;10475895;28;20079;-66
2022/04/27 02:53:37;;;;;;;15.65;9.52;;;;;;;;;;10475754;28;20258;-66
2022/04/27 02:58:39;;;;;;;17.60;9.75;;;;;;;;;;10475860;28;20071;-66
2022/04/27 03:03:42;;;;;;;18.50;11.13;;;;;;;;;;10476351;28;20256;-66
2022/04/27 03:08:46;;;;;;;18.05;10.18;;;;;;;;;;10474170;28;20068;-67
2022/04/27 03:13:48;;;;;;;17.48;11.15;;;;;;;;;;10475080;28;20063;-67
2022/04/27 03:18:50;;;;;;;19.00;10.70;;;;;;;;;;10477226;28;20048;-67
2022/04/27 03:23:55;;;;;;;16.33;11.40;;;;;;;;;;10477063;28;20049;-66
2022/04/27 03:28:57;;;;;;;17.08;10.55;;;;;;;;;;10477140;28;20303;-65
2022/04/27 03:33:59;;;;;;;18.77;11.70;;;;;;;;;;10479829;28;20049;-65
2022/04/27 03:39:03;;;;;;;15.82;10.23;;;;;;;;;;10481240;28;20136;-65
2022/04/27 03:44:06;;;;;;;18.08;10.68;;;;;;;;;;10477044;28;20063;-66
2022/04/27 03:49:08;;;;;;;13.93;9.45;;;;;;;;;;10447431;28;20045;-66
2022/04/27 03:54:11;;;;;;;19.33;10.93;;;;;;;;;;10440330;28;20049;-66
2022/04/27 03:59:15;;;;;;;18.10;11.60;;;;;;;;;;10479989;28;20397;-65
2022/04/27 04:04:17;;;;;;;15.07;10.27;;;;;;;;;;10477353;28;20087;-67
2022/04/27 04:09:21;;;;;;;16.05;10.88;;;;;;;;;;10478918;28;20209;-66
2022/04/27 04:14:23;;;;;;;18.95;10.23;;;;;;;;;;10478996;28;20049;-68
2022/04/27 04:19:25;;;;;;;12.75;10.98;;;;;;;;;;10437210;28;20072;-67
2022/04/27 04:24:29;;;;;;;12.65;9.30;;;;;;;;;;10477487;28;20053;-68
2022/04/27 04:29:32;;;;;;;15.15;10.68;;;;;;;;;;10478403;28;20050;-68
2022/04/27 04:34:35;;;;;;;11.53;7.10;;;;;;;;;;10480679;28;20055;-68
2022/04/27 04:39:38;;;;;;;10.10;8.32;;;;;;;;;;10479018;28;20305;-67
2022/04/27 04:44:41;;;;;;;15.50;8.18;;;;;;;;;;10477136;28;20196;-68
2022/04/27 04:49:43;;;;;;;7.15;6.38;;;;;;;;;;10472171;28;20053;-67
2022/04/27 04:54:46;;;;;;;11.85;6.60;;;;;;;;;;10473027;28;20048;-68
2022/04/27 04:59:49;;;;;;;10.77;8.15;;;;;;;;;;10471714;28;20041;-68
2022/04/27 05:04:51;;;;;;;12.15;7.60;;;;;;;;;;10472320;28;20072;-67
2022/04/27 05:09:55;;;;;;;13.18;8.00;;;;;;;;;;10472291;28;20048;-67
2022/04/27 05:14:57;;;;;;;10.43;7.67;;;;;;;;;;10465967;28;20048;-67
2022/04/27 05:20:00;;;;;;;9.23;7.80;;;;;;;;;;10472237;28;20298;-67
2022/04/27 05:25:05;;;;;;;9.13;7.45;;;;;;;;;;10469717;28;20061;-67
2022/04/27 05:35:29;;;;;;;8.82;7.25;;;;;;;;;;10448626;28;20053;-66
2022/04/27 05:40:33;;;;;;;11.25;7.85;;;;;;;;;;10465244;28;20064;-67
2022/04/27 05:45:36;;;;;;;11.60;6.80;;;;;;;;;;10475478;28;20096;-67
2022/04/27 05:50:38;;;;;;;11.97;6.67;;;;;;;;;;10477543;28;20352;-67
2022/04/27 05:55:43;;;;;;;8.83;5.47;;;;;;;;;;10475985;28;20103;-66
2022/04/27 06:00:46;;;;;;;8.40;5.60;;;;;;;;;;10477431;28;20067;-67
2022/04/27 06:05:49;;;;;;;5.88;5.30;;;;;;;;;;10474090;28;20067;-68
2022/04/27 06:10:52;;;;;;;5.60;5.10;;;;;;;;;;10477677;28;20045;-67
2022/04/27 06:15:55;;;;;;;5.63;4.50;;;;;;;;;;10476561;28;20095;-67
2022/04/27 06:20:57;;;;;;;5.90;5.15;;;;;;;;;;10476314;28;20111;-67
2022/04/27 06:26:01;;;;;;;9.15;4.18;;;;;;;;;;10476937;28;20060;-67
2022/04/27 06:31:04;;;;;;;4.53;4.20;;;;;;;;;;10476291;28;20052;-68
2022/04/27 06:36:06;;;;;;;4.50;4.15;;;;;;;;;;10472745;28;20040;-68
2022/04/27 06:41:10;;;;;;;6.82;4.07;;;;;;;;;;10477211;28;20056;-69
2022/04/27 06:46:12;;;;;;;7.45;4.78;;;;;;;;;;10456316;28;20057;-68
2022/04/27 06:51:15;;;;;;;5.50;4.20;;;;;;;;;;10477075;28;20045;-67
2022/04/27 06:56:18;;;;;;;5.57;4.10;;;;;;;;;;10475681;28;20056;-67
2022/04/27 07:01:21;;;;;;;5.55;4.20;;;;;;;;;;10475891;28;20057;-68
2022/04/27 07:06:23;;;;;;;4.60;3.60;;;;;;;;;;10456763;28;20057;-69
2022/04/27 07:11:27;;;;;;;12.80;4.25;;;;;;;;;;10475076;28;20244;-68
2022/04/27 07:16:30;;;;;;;5.40;4.85;;;;;;;;;;10475038;28;20106;-66
2022/04/27 07:21:32;;;;;;;3.85;3.20;;;;;;;;;;10474600;28;20055;-66
2022/04/27 07:26:36;;;;;;;2.78;2.55;;;;;;;;;;10468674;28;20060;-68
2022/04/27 07:31:39;;;;;;;5.35;2.90;;;;;;;;;;10475007;28;20087;-68
2022/04/27 07:36:41;;;;;;;5.03;2.65;;;;;;;;;;10473509;28;20053;-69
2022/04/27 07:41:45;;;;;;;3.55;2.60;;;;;;;;;;10473419;28;20057;-68
2022/04/27 07:46:48;;;;;;;6.68;3.20;;;;;;;;;;10455984;28;20052;-67
2022/04/27 07:51:51;;;;;;;4.85;3.45;;;;;;;;;;10473378;28;20049;-68
2022/04/27 07:56:55;;;;;;;5.38;3.58;;;;;;;;;;10473163;28;20053;-67
2022/04/27 08:01:57;;;;;;;4.45;4.05;;;;;;;;;;10473260;28;20044;-67
2022/04/27 08:07:00;;;;;;;4.10;3.70;;;;;;;;;;10473696;28;20045;-67
2022/04/27 08:12:04;;;;;;;;;;;;;;;;;;10473536;28;20406;-66
2022/04/27 08:17:06;;;;;;;;;;;;;;;;;;10472887;28;19924;-67
2022/04/27 08:22:09;;;;;;;6.03;4.22;;;;;;;;;;10473262;28;20253;-68
2022/04/27 08:27:13;;;;;;;5.03;4.57;;;;;;;;;;10471493;28;20252;-68
2022/04/27 08:32:15;;;;;;;7.13;4.50;;;;;;;;;;10472597;28;20041;-66
2022/04/27 08:37:17;;;;;;;5.68;4.97;;;;;;;;;;10471109;28;20244;-68
2022/04/27 08:42:21;;;;;;;5.20;4.70;;;;;;;;;;10471949;28;20228;-69
2022/04/27 08:47:24;;;;;;;6.03;4.10;;;;;;;;;;10471130;28;20052;-68
2022/04/27 08:52:27;;;;;;;4.95;4.35;;;;;;;;;;10470214;28;20355;-68
2022/04/27 08:57:31;;;;;;;4.22;3.67;;;;;;;;;;10471157;28;20063;-67
2022/04/27 09:02:34;;;;;;;5.38;3.88;;;;;;;;;;10465691;28;20037;-67
2022/04/27 09:07:38;;;;;;;4.90;3.40;;;;;;;;;;10469856;28;20056;-67
2022/04/27 09:12:47;;;;;;;5.55;3.42;;;;;;;;;;10465223;28;20048;-67
2022/04/27 09:23:22;;;;;;;6.15;3.33;;;;;;;;;;10477987;28;20057;-67
2022/04/27 09:28:27;;;;;;;3.53;2.60;;;;;;;;;;10469402;28;20045;-67
2022/04/27 09:33:34;;;;;;;4.85;2.53;;;;;;;;;;10492991;28;20047;-66
2022/04/27 09:38:40;;;;;;;3.35;2.60;;;;;;;;;;10492208;28;20070;-67
2022/04/27 09:43:45;;;;;;;3.13;2.50;;;;;;;;;;10460355;28;20057;-68
2022/04/27 09:48:47;;;;;;;4.13;2.20;;;;;;;;;;10492473;28;20339;-67
2022/04/27 09:53:51;;;;;;;5.70;2.33;;;;;;;;;;10479237;28;20120;-69
2022/04/27 09:58:57;;;;;;;1.83;1.73;;;;;;;;;;10471961;28;20071;-68
2022/04/27 10:04:01;;;;;;;6.18;2.30;;;;;;;;;;10451996;28;20049;-67
2022/04/27 10:09:05;;;;;;;2.13;2.03;;;;;;;;;;10475326;28;20052;-67
2022/04/27 10:14:09;;;;;;;3.22;2.47;;;;;;;;;;10477061;28;20049;-67
2022/04/27 10:19:11;;;;;;;4.90;2.35;;;;;;;;;;10469409;28;20053;-68
2022/04/27 10:24:16;;;;;;;7.63;2.67;;;;;;;;;;10476013;28;20061;-68
2022/04/27 10:29:20;;;;;;;3.88;2.42;;;;;;;;;;10477044;28;20233;-67
2022/04/27 10:34:23;;;;;;;5.50;2.40;;;;;;;;;;10457746;28;20056;-68
2022/04/27 10:39:26;;;;;;;;;;;;;;;;;;10461262;28;20361;-67
2022/04/27 10:45:07;;;;;;;3.50;3.13;;;;;;;;;;10476577;28;19924;-67
2022/04/27 10:50:23;;;;;;;5.85;3.17;;;;;;;;;;10468186;28;20057;-67
2022/04/27 10:55:53;;;;;;;3.22;2.90;;;;;;;;;;10479778;28;20055;-67
2022/04/27 11:01:28;;;;;;;3.53;3.22;;;;;;;;;;10488713;28;20048;-67
2022/04/27 11:07:04;;;;;;;6.75;3.25;;;;;;;;;;10473083;28;20115;-67
2022/04/27 11:12:08;;;;;;;6.50;3.25;;;;;;;;;;10462946;28;20291;-67
2022/04/27 11:17:13;;;;;;;6.13;3.30;;;;;;;;;;10475805;28;20324;-69
2022/04/27 11:22:18;;;;;;;3.45;3.00;;;;;;;;;;10475474;28;20052;-67
2022/04/27 11:27:26;;;;;;;4.15;2.97;;;;;;;;;;10439455;28;20069;-68
2022/04/27 11:32:29;;;;;;;10.90;3.50;;;;;;;;;;10458091;28;20057;-68
2022/04/27 11:37:36;;;;;;;6.07;3.63;;;;;;;;;;10474254;28;20048;-67
2022/04/27 11:42:42;;;;;;;4.03;3.15;;;;;;;;;;10487785;28;20114;-67
2022/04/27 11:47:56;;;;;;;3.88;3.30;;;;;;;;;;10488669;28;20067;-67
2022/04/27 11:53:02;;;;;;;10.07;3.30;;;;;;;;;;10433724;28;20348;-68
2022/04/27 11:58:07;;;;;;;7.22;3.33;;;;;;;;;;10472324;28;20059;-67
2022/04/27 12:03:11;;;;;;;3.95;3.13;;;;;;;;;;10466419;28;20272;-68
2022/04/27 12:08:19;;;;;;;5.05;3.22;;;;;;;;;;10446784;28;20052;-66
2022/04/27 12:13:24;;;;;;;4.82;3.20;;;;;;;;;;10484819;28;20036;-67
2022/04/27 12:18:28;;;;;;;6.55;3.63;;;;;;;;;;10471368;28;20083;-68
2022/04/27 12:23:38;;;;;;;3.97;3.30;;;;;;;;;;10471948;28;20057;-66
2022/04/27 12:28:44;;;;;;;4.70;3.40;;;;;;;;;;10485238;28;20045;-68
2022/04/27 12:33:49;;;;;;;7.05;3.90;;;;;;;;;;10487072;28;20048;-67
2022/04/27 12:38:59;;;;;;;9.27;4.00;;;;;;;;;;10460448;28;20057;-67
2022/04/27 12:44:03;;;;;;;6.65;4.03;;;;;;;;;;10469592;28;20056;-67
2022/04/27 12:49:07;;;;;;;4.90;3.53;;;;;;;;;;10470562;28;20076;-68
2022/04/27 12:54:09;;;;;;;;;;;;;;;;;;10472955;28;20086;-67
2022/04/27 12:59:13;;;;;;;7.57;4.68;;;;;;;;;;10471988;28;19924;-68
2022/04/27 13:04:16;;;;;;;9.10;4.47;;;;;;;;;;10473576;28;20395;-67
2022/04/27 13:14:44;;;;;;;5.97;4.15;;;;;;;;;;10385544;28;20052;-66
2022/04/27 13:19:47;;;;;;;5.55;3.90;;;;;;;;;;10345134;28;20046;-68
2022/04/27 13:24:50;;;;;;;10.68;5.30;;;;;;;;;;10381413;28;20062;-67
2022/04/27 13:29:52;;;;;;;10.75;3.90;;;;;;;;;;10384328;28;20065;-66
2022/04/27 13:34:56;;;;;;;5.05;3.58;;;;;;;;;;10380292;28;20315;-70
2022/04/27 13:39:58;;;;;;;6.93;4.15;;;;;;;;;;10382279;28;20053;-67
2022/04/27 13:45:01;;;;;;;5.72;3.72;;;;;;;;;;10385204;28;20237;-68
2022/04/27 13:50:06;;;;;;;16.38;7.93;;;;;;;;;;10400116;28;20128;-67
2022/04/27 13:55:09;;;;;;;27.98;5.35;;;;;;;;;;10477419;28;20107;-67
2022/04/27 14:00:11;;;;;;;6.43;3.95;;;;;;;;;;10476229;28;20045;-69
2022/04/27 14:05:15;;;;;;;8.27;3.78;;;;;;;;;;10438131;28;20053;-67
2022/04/27 14:10:18;;;;;;;8.18;3.97;;;;;;;;;;10477722;28;20086;-67
2022/04/27 14:15:21;;;;;;;4.80;4.30;;;;;;;;;;10477680;28;20060;-68
2022/04/27 14:20:25;;;;;;;5.35;4.10;;;;;;;;;;10476839;28;20049;-66
2022/04/27 14:25:28;;;;;;;6.28;4.18;;;;;;;;;;10476354;28;20068;-68
2022/04/27 14:30:31;;;;;;;11.00;4.30;;;;;;;;;;10476731;28;20064;-70
2022/04/27 14:35:34;;;;;;;7.28;4.25;;;;;;;;;;10476299;28;20060;-67
2022/04/27 14:40:37;;;;;;;5.53;4.53;;;;;;;;;;10476013;28;20052;-68
2022/04/27 14:45:39;;;;;;;4.55;4.15;;;;;;;;;;10476937;28;20236;-66
2022/04/27 14:50:43;;;;;;;4.75;4.28;;;;;;;;;;10475813;28;20235;-66
2022/04/27 14:55:45;;;;;;;5.53;4.72;;;;;;;;;;10477540;28;20060;-66
2022/04/27 15:00:48;;;;;;;7.85;4.38;;;;;;;;;;10475470;28;20355;-68
2022/04/27 15:05:51;;;;;;;6.03;4.45;;;;;;;;;;10475187;28;20076;-66
2022/04/27 15:10:54;;;;;;;5.05;4.40;;;;;;;;;;10475355;28;20053;-68
2022/04/27 15:15:56;;;;;;;5.28;4.75;;;;;;;;;;10476330;28;20385;-68
2022/04/27 15:26:57;;;;;;;5.10;4.47;;;;;;;;;;10465482;28;20052;-67
2022/04/27 15:31:43;;;;;;;5.10;4.47;;;;;;;;;;10473777;28;20367;-66
2022/04/27 15:36:46;;;;;;;5.25;4.75;;;;;;;;;;10474838;28;20049;-68
2022/04/27 15:41:49;;;;;;;7.67;4.70;;;;;;;;;;10476322;28;20243;-69
2022/04/27 15:46:51;;;;;;;9.40;4.75;;;;;;;;;;10473490;28;20045;-71
2022/04/27 15:51:55;;;;;;;5.18;4.47;;;;;;;;;;10474126;28;20045;-68
2022/04/27 15:56:57;;;;;;;7.22;4.35;;;;;;;;;;10471686;28;20053;-68
2022/04/27 16:01:59;;;;;;;8.13;4.72;;;;;;;;;;10433864;28;20041;-68
2022/04/27 16:07:03;;;;;;;5.82;4.50;;;;;;;;;;10471160;28;20062;-69
2022/04/27 16:12:07;;;;;;;8.90;5.00;;;;;;;;;;10473993;28;20102;-69
2022/04/27 16:17:10;;;;;;;11.13;5.30;;;;;;;;;;10473247;28;20248;-67
2022/04/27 16:27:36;;;;;;;8.80;4.95;;;;;;;;;;10353024;28;20124;-68
2022/04/27 16:32:38;;;;;;;8.35;5.78;;;;;;;;;;10379568;28;20356;-68
2022/04/27 16:37:41;;;;;;;8.98;5.93;;;;;;;;;;10384035;28;20058;-68
2022/04/27 16:42:44;;;;;;;8.90;5.80;;;;;;;;;;10348898;28;20053;-68
2022/04/27 16:47:46;;;;;;;38.63;12.85;;;;;;;;;;10386356;28;20046;-67
2022/04/27 16:52:50;;;;;;;8.77;5.70;;;;;;;;;;10385026;28;20104;-68
2022/04/27 16:57:52;;;;;;;7.63;5.93;;;;;;;;;;10387335;28;20253;-67
2022/04/27 17:02:56;;;;;;;8.98;5.97;;;;;;;;;;10422976;28;20051;-69
2022/04/27 17:08:00;;;;;;;12.05;7.28;;;;;;;;;;10473969;28;20044;-69
2022/04/27 17:13:03;;;;;;;20.02;8.23;;;;;;;;;;10470666;28;20040;-68
2022/04/27 17:18:05;;;;;;;13.02;6.05;;;;;;;;;;10470355;28;20044;-69
2022/04/27 17:23:10;;;;;;;37.05;15.40;;;;;;;;;;10456497;28;20053;-68
2022/04/27 17:28:12;;;;;;;12.60;9.20;;;;;;;;;;10476404;28;20049;-69
2022/04/27 17:33:15;;;;;;;21.50;9.25;;;;;;;;;;10474150;28;20053;-68
2022/04/27 17:38:18;;;;;;;27.65;12.20;;;;;;;;;;10458914;28;20037;-68
2022/04/27 17:43:21;;;;;;;14.13;10.38;;;;;;;;;;10480049;28;20040;-68
2022/04/27 17:48:24;;;;;;;19.10;10.55;;;;;;;;;;10478699;28;20060;-68
2022/04/27 17:53:27;;;;;;;21.52;11.43;;;;;;;;;;10479265;28;20131;-69
2022/04/27 17:58:30;;;;;;;21.73;14.15;;;;;;;;;;10479720;28;20065;-68
2022/04/27 18:03:32;;;;;;;14.15;9.77;;;;;;;;;;10477432;28;20037;-68
2022/04/27 18:08:37;;;;;;;24.20;17.73;;;;;;;;;;10481964;28;20052;-68
2022/04/27 18:13:40;;;;;;;27.80;12.32;;;;;;;;;;10461271;28;20098;-68
2022/04/27 18:18:42;;;;;;;19.00;10.13;;;;;;;;;;10478467;28;20387;-68
2022/04/27 18:23:46;;;;;;;25.17;11.80;;;;;;;;;;10444690;28;20092;-68
2022/04/27 18:28:49;;;;;;;29.38;14.93;;;;;;;;;;10437530;28;20041;-67
2022/04/27 18:33:51;;;;;;;31.10;15.68;;;;;;;;;;10469775;28;20049;-67
2022/04/27 18:38:55;;;;;;;29.98;15.27;;;;;;;;;;10476785;28;20048;-68
2022/04/27 18:54:40;;;;;;;34.25;16.25;;;;;;;;;;10477944;28;20434;-67
2022/04/27 18:59:44;;;;;;;43.55;21.95;;;;;;;;;;10482328;28;20366;-67
2022/04/27 19:04:46;;;;;;;23.65;15.48;;;;;;;;;;10437923;28;20053;-68
2022/04/27 19:09:51;;;;;;;31.17;16.70;;;;;;;;;;10445660;28;20052;-68
2022/04/27 19:14:53;;;;;;;35.28;19.35;;;;;;;;;;10475683;28;20041;-67
2022/04/27 19:19:55;;;;;;;31.50;16.67;;;;;;;;;;10475759;28;20328;-68
2022/04/27 19:25:00;;;;;;;24.35;13.25;;;;;;;;;;10474327;28;20080;-67
2022/04/27 19:30:03;;;;;;;16.75;9.38;;;;;;;;;;10474680;28;20147;-69
2022/04/27 19:35:06;;;;;;;20.42;11.13;;;;;;;;;;10475096;28;20059;-69
2022/04/27 19:40:10;;;;;;;23.98;14.50;;;;;;;;;;10466589;28;20049;-67
2022/04/27 19:45:13;;;;;;;24.30;13.07;;;;;;;;;;10474664;28;20041;-67
2022/04/27 19:50:18;;;;;;;24.75;13.23;;;;;;;;;;10473113;28;20115;-67
2022/04/27 19:55:22;;;;;;;32.45;18.70;;;;;;;;;;10474484;28;20056;-68
2022/04/27 20:00:24;;;;;;;35.10;19.88;;;;;;;;;;10473284;28;20037;-67
2022/04/27 20:05:28;;;;;;;28.75;16.48;;;;;;;;;;10473278;28;20049;-66
2022/04/27 20:10:32;;;;;;;29.25;16.65;;;;;;;;;;10460050;28;20116;-67
2022/04/27 20:15:35;;;;;;;40.42;23.92;;;;;;;;;;10468682;28;20064;-66
2022/04/27 20:20:37;;;;;;;27.83;17.10;;;;;;;;;;10476645;28;20052;-67
2022/04/27 20:25:41;;;;;;;22.70;14.23;;;;;;;;;;10473187;28;20075;-67
2022/04/27 20:30:46;;;;;;;35.40;19.25;;;;;;;;;;10471481;28;20052;-67
2022/04/27 20:35:49;;;;;;;34.72;17.52;;;;;;;;;;10471708;28;20045;-66
2022/04/27 20:40:53;;;;;;;35.65;16.73;;;;;;;;;;10470198;28;20052;-67
2022/04/27 20:45:55;;;;;;;26.65;15.88;;;;;;;;;;10472718;28;20060;-68
2022/04/27 20:50:58;;;;;;;28.38;14.88;;;;;;;;;;10471523;28;20068;-68
2022/04/27 20:56:01;;;;;;;22.55;13.93;;;;;;;;;;10472497;28;20052;-67
2022/04/27 21:01:04;;;;;;;19.17;14.88;;;;;;;;;;10455059;28;20252;-67
2022/04/27 21:06:07;;;;;;;25.60;15.65;;;;;;;;;;10465430;28;20048;-67
2022/04/27 21:11:13;;;;;;;20.08;12.63;;;;;;;;;;10478491;28;20045;-67
2022/04/27 21:16:16;;;;;;;25.90;13.25;;;;;;;;;;10494301;28;20044;-67
2022/04/27 21:21:18;;;;;;;22.23;14.20;;;;;;;;;;10478571;28;20071;-66
2022/04/27 21:26:23;;;;;;;25.13;16.00;;;;;;;;;;10478756;28;20060;-68
2022/04/27 21:31:25;;;;;;;35.25;19.40;;;;;;;;;;10479443;28;20045;-67
2022/04/27 21:36:30;;;;;;;36.50;18.45;;;;;;;;;;10479743;28;20041;-67
2022/04/27 21:41:34;;;;;;;30.40;15.90;;;;;;;;;;10458759;28;20099;-68
2022/04/27 21:46:37;;;;;;;34.85;16.83;;;;;;;;;;10475867;28;20043;-66
2022/04/27 21:51:39;;;;;;;45.55;17.77;;;;;;;;;;10483870;28;20045;-66
2022/04/27 21:56:43;;;;;;;26.83;16.23;;;;;;;;;;10480853;28;20049;-66
2022/04/27 22:01:46;;;;;;;29.55;16.83;;;;;;;;;;10478105;28;20130;-66
2022/04/27 22:06:50;;;;;;;36.05;16.83;;;;;;;;;;10479309;28;20056;-66
2022/04/27 22:11:54;;;;;;;30.95;17.98;;;;;;;;;;10478516;28;20044;-66
2022/04/27 22:16:56;;;;;;;27.25;16.15;;;;;;;;;;10478248;28;20225;-68
2022/04/27 22:21:58;;;;;;;31.98;16.77;;;;;;;;;;10475162;28;20041;-66
2022/04/27 22:27:03;;;;;;;28.95;16.38;;;;;;;;;;10477879;28;20065;-66
2022/04/27 22:32:08;;;;;;;33.90;16.73;;;;;;;;;;10477835;28;20045;-66
2022/04/27 22:37:10;;;;;;;32.63;17.90;;;;;;;;;;10477053;28;20060;-66
2022/04/27 22:42:17;;;;;;;30.23;17.17;;;;;;;;;;10477824;28;20045;-65
2022/04/27 22:47:19;;;;;;;30.13;16.60;;;;;;;;;;10476371;28;20048;-67
2022/04/27 22:52:23;;;;;;;29.90;16.02;;;;;;;;;;10477828;28;20056;-66
2022/04/27 22:57:27;;;;;;;27.08;16.02;;;;;;;;;;10476062;28;20336;-66
2022/04/27 23:02:29;;;;;;;27.83;17.08;;;;;;;;;;10476396;28;20060;-67
2022/04/27 23:12:49;;;;;;;20.63;14.05;;;;;;;;;;10475827;28;20067;-67
2022/04/27 23:17:55;;;;;;;28.00;15.90;;;;;;;;;;10475915;28;20045;-67
2022/04/27 23:22:57;;;;;;;;;;;;;;;;;;10475269;28;20064;-68
2022/04/27 23:28:01;;;;;;;31.10;16.20;;;;;;;;;;10473553;28;19939;-66
2022/04/27 23:33:05;;;;;;;27.63;15.52;;;;;;;;;;10475315;28;20347;-67
2022/04/27 23:38:07;;;;;;;31.50;14.63;;;;;;;;;;10474135;28;20052;-67
2022/04/27 23:43:11;;;;;;;25.00;14.27;;;;;;;;;;10473542;28;20049;-66
2022/04/27 23:48:14;;;;;;;20.80;12.02;;;;;;;;;;10466075;28;20055;-66
2022/04/27 23:53:16;;;;;;;27.55;12.60;;;;;;;;;;10474175;28;20379;-67
2022/04/27 23:58:20;;;;;;;20.80;12.23;;;;;;;;;;10473908;28;20224;-66
